Home > Products > Valid Products > TAF

000
FTUS45 KREV 030500
TAFRNO
TAF
KRNO 030520Z 0306/0406 32006KT P6SM BKN060 BKN090
     FM031800 02008KT P6SM FEW050
     FM040300 VRB03KT P6SM SKC=



000
FTUS45 KREV 030500
TAFRNO
TAF
KRNO 030520Z 0306/0406 32006KT P6SM BKN060 BKN090
     FM031800 02008KT P6SM FEW050
     FM040300 VRB03KT P6SM SKC=



000
FTUS45 KREV 022300
TAFRNO
TAF
KRNO 022335Z 0300/0324 31011KT P6SM VCSH BKN050 BKN090
     FM030200 31009KT P6SM SCT050 BKN100
     FM030800 VRB04KT P6SM BKN100
     FM031800 01008KT P6SM SCT200=



000
FTUS45 KREV 021700
TAFRNO
TAF
KRNO 021720Z 0218/0318 VRB03KT P6SM SCT070
     FM022100 33010G17KT P6SM -SHRA FEW020 BKN040
     FM030200 31009KT P6SM SCT040 SCT100
     FM030800 VRB04KT P6SM BKN035=



000
FTUS45 KREV 021700
TAFRNO
TAF
KRNO 021720Z 0218/0318 VRB03KT P6SM SCT070
     FM022100 33010G17KT P6SM -SHRA FEW020 BKN040
     FM030200 31009KT P6SM SCT040 SCT100
     FM030800 VRB04KT P6SM BKN035=



000
FTUS45 KREV 021100 RRA
TAFRNO
TAF
KRNO 021140Z 0212/0312 VRB03KT P6SM FEW050
     FM022100 33010G17KT P6SM -SHRA FEW020 BKN040
     FM030200 31009KT P6SM SCT040 SCT100
     FM030800 VRB04KT P6SM BKN035=



000
FTUS45 KREV 021100 RRA
TAFRNO
TAF
KRNO 021140Z 0212/0312 VRB03KT P6SM FEW050
     FM022100 33010G17KT P6SM -SHRA FEW020 BKN040
     FM030200 31009KT P6SM SCT040 SCT100
     FM030800 VRB04KT P6SM BKN035=



000
FTUS45 KREV 021100 RRA
TAFRNO
TAF
KRNO 021140Z 0212/0312 VRB03KT P6SM FEW050
     FM022100 33010G17KT P6SM -SHRA FEW020 BKN040
     FM030200 31009KT P6SM SCT040 SCT100
     FM030800 VRB04KT P6SM BKN035=



000
FTUS45 KREV 021100 RRA
TAFRNO
TAF
KRNO 021140Z 0212/0312 VRB03KT P6SM FEW050
     FM022100 33010G17KT P6SM -SHRA FEW020 BKN040
     FM030200 31009KT P6SM SCT040 SCT100
     FM030800 VRB04KT P6SM BKN035=



000
FTUS45 KREV 020500
TAFRNO
TAF
KRNO 020520Z 0206/0306 VRB03KT P6SM FEW050 BKN200
     FM022100 33010G17KT P6SM VCSH BKN035 OVC070
     FM030300 34006KT P6SM SCT040 BKN100=



000
FTUS45 KREV 020500
TAFRNO
TAF
KRNO 020520Z 0206/0306 VRB03KT P6SM FEW050 BKN200
     FM022100 33010G17KT P6SM VCSH BKN035 OVC070
     FM030300 34006KT P6SM SCT040 BKN100=



000
FTUS45 KREV 020500
TAFRNO
TAF
KRNO 020520Z 0206/0306 VRB03KT P6SM FEW050 BKN200
     FM022100 33010G17KT P6SM VCSH BKN035 OVC070
     FM030300 34006KT P6SM SCT040 BKN100=



000
FTUS45 KREV 020500
TAFRNO
TAF
KRNO 020520Z 0206/0306 VRB03KT P6SM FEW050 BKN200
     FM022100 33010G17KT P6SM VCSH BKN035 OVC070
     FM030300 34006KT P6SM SCT040 BKN100=



000
FTUS45 KREV 012300
TAFRNO
TAF
KRNO 012329Z 0200/0224 03007KT P6SM BKN050
     FM020300 VRB03KT P6SM SCT050 SCT200
     FM022100 33010G17KT P6SM VCSH BKN035 OVC070=



000
FTUS45 KREV 011700
TAFRNO
TAF
KRNO 011739Z 0118/0218 03007KT P6SM SCT050 BKN090
     FM020200 VRB03KT P6SM SCT050=



000
FTUS45 KREV 011700
TAFRNO
TAF
KRNO 011739Z 0118/0218 03007KT P6SM SCT050 BKN090
     FM020200 VRB03KT P6SM SCT050=



000
FTUS45 KREV 011700
TAFRNO
TAF
KRNO 011739Z 0118/0218 03007KT P6SM SCT050 BKN090
     FM020200 VRB03KT P6SM SCT050=



000
FTUS45 KREV 011100
TAFRNO
TAF
KRNO 011139Z 0112/0212 VRB04KT P6SM OVC035
     FM011900 08007KT P6SM FEW035 BKN050
     FM020200 VRB03KT P6SM SCT050=



000
FTUS45 KREV 011100
TAFRNO
TAF
KRNO 011139Z 0112/0212 VRB04KT P6SM OVC035
     FM011900 08007KT P6SM FEW035 BKN050
     FM020200 VRB03KT P6SM SCT050=



000
FTUS45 KREV 010500
TAFRNO
TAF
KRNO 010520Z 0106/0206 VRB03KT P6SM BKN035 OVC060
     FM011600 04006KT P6SM BKN040
     FM020200 VRB03KT P6SM SCT040=



000
FTUS45 KREV 010500
TAFRNO
TAF
KRNO 010520Z 0106/0206 VRB03KT P6SM BKN035 OVC060
     FM011600 04006KT P6SM BKN040
     FM020200 VRB03KT P6SM SCT040=



000
FTUS45 KREV 010500
TAFRNO
TAF
KRNO 010520Z 0106/0206 VRB03KT P6SM BKN035 OVC060
     FM011600 04006KT P6SM BKN040
     FM020200 VRB03KT P6SM SCT040=



000
FTUS45 KREV 010200 AAA
TAFRNO
TAF AMD
KRNO 010223Z 0102/0124 35006KT P6SM FEW015 BKN080
     FM010600 VRB03KT P6SM BKN035
     FM011000 VRB03KT P6SM VCFG FEW005 SCT040
      TEMPO 0110/0114 1SM BR BKN005
     FM011600 03006KT P6SM BKN040=



000
FTUS45 KREV 010200 AAA
TAFRNO
TAF AMD
KRNO 010223Z 0102/0124 35006KT P6SM FEW015 BKN080
     FM010600 VRB03KT P6SM BKN035
     FM011000 VRB03KT P6SM VCFG FEW005 SCT040
      TEMPO 0110/0114 1SM BR BKN005
     FM011600 03006KT P6SM BKN040=



000
FTUS45 KREV 010200 AAA
TAFRNO
TAF AMD
KRNO 010223Z 0102/0124 35006KT P6SM FEW015 BKN080
     FM010600 VRB03KT P6SM BKN035
     FM011000 VRB03KT P6SM VCFG FEW005 SCT040
      TEMPO 0110/0114 1SM BR BKN005
     FM011600 03006KT P6SM BKN040=



000
FTUS45 KREV 010200 AAA
TAFRNO
TAF AMD
KRNO 010223Z 0102/0124 35006KT P6SM FEW015 BKN080
     FM010600 VRB03KT P6SM BKN035
     FM011000 VRB03KT P6SM VCFG FEW005 SCT040
      TEMPO 0110/0114 1SM BR BKN005
     FM011600 03006KT P6SM BKN040=



000
FTUS45 KREV 282300
TAFRNO
TAF
KRNO 282339Z 0100/0124 33008KT 5SM -SHSNRA SCT012 BKN025 OVC035
      TEMPO 0100/0102 2SM -SN BKN012
     FM010300 35007KT P6SM VCSH SCT020 OVC035
     FM010600 VRB04KT P6SM SCT030 BKN040
     FM011000 VRB03KT P6SM VCFG FEW005 SCT040
      TEMPO 0110/0114 1SM BR BKN005
     FM011600 03006KT P6SM BKN040=



000
FTUS45 KREV 282300
TAFRNO
TAF
KRNO 282339Z 0100/0124 33008KT 5SM -SHSNRA SCT012 BKN025 OVC035
      TEMPO 0100/0102 2SM -SN BKN012
     FM010300 35007KT P6SM VCSH SCT020 OVC035
     FM010600 VRB04KT P6SM SCT030 BKN040
     FM011000 VRB03KT P6SM VCFG FEW005 SCT040
      TEMPO 0110/0114 1SM BR BKN005
     FM011600 03006KT P6SM BKN040=



000
FTUS45 KREV 282300
TAFRNO
TAF
KRNO 282339Z 0100/0124 33008KT 5SM -SHSNRA SCT012 BKN025 OVC035
      TEMPO 0100/0102 2SM -SN BKN012
     FM010300 35007KT P6SM VCSH SCT020 OVC035
     FM010600 VRB04KT P6SM SCT030 BKN040
     FM011000 VRB03KT P6SM VCFG FEW005 SCT040
      TEMPO 0110/0114 1SM BR BKN005
     FM011600 03006KT P6SM BKN040=



000
FTUS45 KREV 281900 AAA
TAFRNO
TAF AMD
KRNO 281943Z 2820/0118 35007KT 1SM -SN SCT008 OVC015
     FM282100 34009KT 3SM -SHSN SCT015 OVC030
     FM010100 35007KT P6SM SCT030 BKN045=



000
FTUS45 KREV 281900 AAA
TAFRNO
TAF AMD
KRNO 281943Z 2820/0118 35007KT 1SM -SN SCT008 OVC015
     FM282100 34009KT 3SM -SHSN SCT015 OVC030
     FM010100 35007KT P6SM SCT030 BKN045=



000
FTUS45 KREV 281900 AAA
TAFRNO
TAF AMD
KRNO 281943Z 2820/0118 35007KT 1SM -SN SCT008 OVC015
     FM282100 34009KT 3SM -SHSN SCT015 OVC030
     FM010100 35007KT P6SM SCT030 BKN045=



000
FTUS45 KREV 281700
TAFRNO
TAF
KRNO 281720Z 2818/0118 35007KT 3/4SM -SN SCT004 OVC008
     FM281900 34010KT 1 1/2SM -SHSN SCT008 OVC015
     FM282000 34009KT P6SM VCSH SCT015 OVC030
     FM010100 35007KT P6SM SCT030 BKN045=



000
FTUS45 KREV 281700
TAFRNO
TAF
KRNO 281720Z 2818/0118 35007KT 3/4SM -SN SCT004 OVC008
     FM281900 34010KT 1 1/2SM -SHSN SCT008 OVC015
     FM282000 34009KT P6SM VCSH SCT015 OVC030
     FM010100 35007KT P6SM SCT030 BKN045=



000
FTUS45 KREV 281700
TAFRNO
TAF
KRNO 281720Z 2818/0118 35007KT 3/4SM -SN SCT004 OVC008
     FM281900 34010KT 1 1/2SM -SHSN SCT008 OVC015
     FM282000 34009KT P6SM VCSH SCT015 OVC030
     FM010100 35007KT P6SM SCT030 BKN045=



000
FTUS45 KREV 281700
TAFRNO
TAF
KRNO 281720Z 2818/0118 35007KT 3/4SM -SN SCT004 OVC008
     FM281900 34010KT 1 1/2SM -SHSN SCT008 OVC015
     FM282000 34009KT P6SM VCSH SCT015 OVC030
     FM010100 35007KT P6SM SCT030 BKN045=



000
FTUS45 KREV 281600 AAB
TAFRNO
TAF AMD
KRNO 281659Z 2817/0112 35007KT 1SM -SHSN FEW004 OVC008
     FM281900 01010KT P6SM VCSH FEW025 BKN035
     FM010100 35007KT P6SM OVC030=



000
FTUS45 KREV 281600 AAB
TAFRNO
TAF AMD
KRNO 281659Z 2817/0112 35007KT 1SM -SHSN FEW004 OVC008
     FM281900 01010KT P6SM VCSH FEW025 BKN035
     FM010100 35007KT P6SM OVC030=



000
FTUS45 KREV 281600 AAB
TAFRNO
TAF AMD
KRNO 281659Z 2817/0112 35007KT 1SM -SHSN FEW004 OVC008
     FM281900 01010KT P6SM VCSH FEW025 BKN035
     FM010100 35007KT P6SM OVC030=



000
FTUS45 KREV 281200 AAA
TAFRNO
TAF AMD
KRNO 281247Z 2813/0112 VRB03KT 4SM BR SCT015 BKN030
     FM281400 VRB04KT 2SM -SN FEW006 BKN011
     FM281700 35007KT 5SM -SHSN FEW010 BKN020
     FM282000 01010KT P6SM VCSH FEW025 BKN035
     FM010100 35007KT P6SM OVC030=



000
FTUS45 KREV 281200 AAA
TAFRNO
TAF AMD
KRNO 281247Z 2813/0112 VRB03KT 4SM BR SCT015 BKN030
     FM281400 VRB04KT 2SM -SN FEW006 BKN011
     FM281700 35007KT 5SM -SHSN FEW010 BKN020
     FM282000 01010KT P6SM VCSH FEW025 BKN035
     FM010100 35007KT P6SM OVC030=



000
FTUS45 KREV 281200 AAA
TAFRNO
TAF AMD
KRNO 281247Z 2813/0112 VRB03KT 4SM BR SCT015 BKN030
     FM281400 VRB04KT 2SM -SN FEW006 BKN011
     FM281700 35007KT 5SM -SHSN FEW010 BKN020
     FM282000 01010KT P6SM VCSH FEW025 BKN035
     FM010100 35007KT P6SM OVC030=



000
FTUS45 KREV 281200 AAA
TAFRNO
TAF AMD
KRNO 281247Z 2813/0112 VRB03KT 4SM BR SCT015 BKN030
     FM281400 VRB04KT 2SM -SN FEW006 BKN011
     FM281700 35007KT 5SM -SHSN FEW010 BKN020
     FM282000 01010KT P6SM VCSH FEW025 BKN035
     FM010100 35007KT P6SM OVC030=



000
FTUS45 KREV 281100 RRA
TAFRNO
TAF
KRNO 281140Z 2812/0112 VRB03KT 4SM -SN SCT005 BKN014
     FM281300 VRB04KT 2SM -SN FEW004 BKN007
     FM281600 36007KT 3SM -SN SCT010 BKN020
     FM282000 01010KT P6SM VCSH FEW025 BKN035
     FM010100 35007KT P6SM OVC030=



    US Dept of Commerce
    National Oceanic and Atmospheric Administration
    National Weather Service
    1325 East West Highway
    Silver Spring, MD 20910
    Page Author: NWS Internet Services Team
Disclaimer
Information Quality
Credits
Glossary
Privacy Policy
Freedom of Information Act (FOIA)
About Us
Career Opportunities